Time;durP1;ratioP1;P1;durP2;ratioP2;P2;SDS_P1;SDS_P2;PMS_P1;PMS_P2;Temp;Humidity;BMP_temperature;BMP_pressure;BME280_temperature;BME280_humidity;BME280_pressure;Samples;Min_cycle;Max_cycle;Signal;HPM_P1;HPM_P2
2021/04/07 00:01:42;;;;;;;31.73;12.45;;;1.30;99.90;;;;;;5033429;28;20088;-59
2021/04/07 00:04:07;;;;;;;26.02;11.73;;;1.20;99.90;;;;;;5032132;28;20449;-60
2021/04/07 00:06:35;;;;;;;26.08;11.55;;;1.20;99.90;;;;;;5033051;28;20033;-59
2021/04/07 00:09:04;;;;;;;26.95;12.05;;;1.20;99.90;;;;;;5031984;28;20104;-60
2021/04/07 00:11:30;;;;;;;30.83;13.35;;;1.20;99.90;;;;;;5038652;28;20047;-60
2021/04/07 00:13:57;;;;;;;26.33;12.30;;;1.20;99.90;;;;;;5033517;28;20097;-59
2021/04/07 00:16:23;;;;;;;29.65;12.60;;;1.20;99.90;;;;;;5032907;28;20099;-57
2021/04/07 00:18:48;;;;;;;21.77;11.73;;;1.20;99.90;;;;;;5032708;28;20025;-60
2021/04/07 00:21:14;;;;;;;27.83;11.43;;;1.20;99.90;;;;;;5033180;28;20071;-59
2021/04/07 00:23:40;;;;;;;27.52;12.38;;;1.20;99.90;;;;;;5031358;28;20487;-58
2021/04/07 00:26:05;;;;;;;29.75;13.20;;;1.20;99.90;;;;;;5040557;28;20037;-59
2021/04/07 00:28:31;;;;;;;34.17;13.82;;;1.20;99.90;;;;;;5031114;28;20030;-59
2021/04/07 00:30:58;;;;;;;41.28;13.77;;;1.20;99.90;;;;;;5032437;28;20056;-60
2021/04/07 00:33:23;;;;;;;32.28;13.60;;;1.10;99.90;;;;;;5031826;28;20041;-59
2021/04/07 00:35:49;;;;;;;33.03;13.63;;;1.10;99.90;;;;;;5031241;28;20021;-59
2021/04/07 00:38:14;;;;;;;31.25;13.48;;;1.10;99.90;;;;;;5032411;28;20025;-59
2021/04/07 00:40:40;;;;;;;35.13;13.55;;;1.20;99.90;;;;;;5040871;28;20124;-59
2021/04/07 00:43:06;;;;;;;32.90;12.77;;;1.20;99.90;;;;;;5029242;28;20041;-60
2021/04/07 00:45:32;;;;;;;27.27;12.48;;;1.20;99.90;;;;;;5031703;28;20029;-59
2021/04/07 00:47:58;;;;;;;25.73;12.52;;;1.10;99.90;;;;;;5032206;28;20037;-59
2021/04/07 00:50:26;;;;;;;33.03;12.30;;;1.20;99.90;;;;;;5029579;28;20033;-59
2021/04/07 00:52:51;;;;;;;30.65;12.88;;;1.20;99.90;;;;;;5023462;28;20022;-58
2021/04/07 00:55:18;;;;;;;29.95;12.52;;;1.10;99.90;;;;;;5024644;28;20032;-55
2021/04/07 00:57:45;;;;;;;23.00;10.85;;;1.10;99.90;;;;;;5027634;28;20071;-59
2021/04/07 01:00:12;;;;;;;22.38;10.82;;;1.10;99.90;;;;;;5031510;28;20024;-59
2021/04/07 01:02:41;;;;;;;28.13;10.25;;;1.00;99.90;;;;;;5031870;28;20037;-59
2021/04/07 01:05:09;;;;;;;26.48;10.65;;;1.00;99.90;;;;;;5029099;28;20764;-58
2021/04/07 01:07:35;;;;;;;21.60;9.43;;;1.00;99.90;;;;;;5023756;28;20049;-59
2021/04/07 01:10:01;;;;;;;26.83;10.82;;;1.00;99.90;;;;;;5023473;28;20025;-58
2021/04/07 01:12:27;;;;;;;26.08;10.52;;;1.00;99.90;;;;;;5024740;28;20029;-59
2021/04/07 01:14:53;;;;;;;29.55;10.77;;;1.00;99.90;;;;;;5031357;28;20021;-58
2021/04/07 01:17:19;;;;;;;29.35;10.73;;;1.00;99.90;;;;;;5031940;28;20099;-59
2021/04/07 01:19:45;;;;;;;35.65;12.93;;;1.00;99.90;;;;;;5026215;28;20544;-57
2021/04/07 01:22:14;;;;;;;29.65;11.77;;;1.00;99.90;;;;;;5023416;28;20037;-59
2021/04/07 01:24:40;;;;;;;36.30;12.75;;;1.00;99.90;;;;;;5023953;28;20084;-59
2021/04/07 01:27:06;;;;;;;26.67;11.98;;;1.00;99.90;;;;;;5025924;28;20490;-59
2021/04/07 01:29:32;;;;;;;27.85;11.55;;;1.00;99.90;;;;;;5033140;28;20028;-60
2021/04/07 01:31:58;;;;;;;28.88;11.80;;;1.00;99.90;;;;;;5031468;28;20533;-59
2021/04/07 01:34:31;;;;;;;29.92;11.45;;;1.10;99.90;;;;;;5031064;28;20021;-58
2021/04/07 01:36:58;;;;;;;24.85;11.80;;;1.10;99.90;;;;;;5029919;28;20029;-56
2021/04/07 01:39:25;;;;;;;31.17;11.65;;;1.10;99.90;;;;;;5031727;28;20022;-57
2021/04/07 01:41:51;;;;;;;27.98;11.70;;;1.10;99.90;;;;;;5028352;28;20709;-58
2021/04/07 01:44:18;;;;;;;27.50;12.38;;;1.10;99.90;;;;;;5034472;28;20112;-59
2021/04/07 01:46:45;;;;;;;27.33;10.85;;;1.20;99.90;;;;;;5031719;28;20463;-59
2021/04/07 01:49:12;;;;;;;22.73;9.75;;;1.20;99.90;;;;;;5035857;28;20029;-59
2021/04/07 01:51:38;;;;;;;20.23;9.82;;;1.20;99.90;;;;;;5029114;28;20025;-56
2021/04/07 01:54:06;;;;;;;17.80;9.02;;;1.20;99.90;;;;;;5005478;28;20509;-60
2021/04/07 01:56:32;;;;;;;27.05;9.95;;;1.20;99.90;;;;;;5021829;28;20045;-58
2021/04/07 01:59:06;;;;;;;24.83;9.68;;;1.20;99.90;;;;;;5035645;28;20380;-58
2021/04/07 02:01:36;;;;;;;17.98;7.18;;;1.30;99.90;;;;;;5033885;28;20033;-58
2021/04/07 02:04:03;;;;;;;18.05;8.95;;;1.20;99.90;;;;;;5030170;28;20028;-58
2021/04/07 02:06:28;;;;;;;18.98;9.48;;;1.30;99.90;;;;;;5024209;28;20108;-58
2021/04/07 02:08:54;;;;;;;21.88;9.50;;;1.30;99.90;;;;;;5023426;28;20163;-57
2021/04/07 02:11:20;;;;;;;23.50;11.25;;;1.20;99.90;;;;;;5022007;28;20034;-60
2021/04/07 02:13:45;;;;;;;21.60;9.60;;;1.20;99.90;;;;;;5031659;28;20021;-58
2021/04/07 02:16:12;;;;;;;24.73;10.55;;;1.30;99.90;;;;;;5035074;28;20032;-58
2021/04/07 02:18:38;;;;;;;23.92;10.85;;;1.20;99.90;;;;;;5030439;28;20036;-60
2021/04/07 02:21:04;;;;;;;23.15;10.70;;;1.20;99.90;;;;;;5031906;28;20025;-58
2021/04/07 02:23:29;;;;;;;22.75;10.05;;;1.20;99.90;;;;;;5036997;28;20025;-59
2021/04/07 02:25:55;;;;;;;25.42;9.32;;;1.20;99.90;;;;;;5029488;28;20061;-59
2021/04/07 02:28:22;;;;;;;27.98;9.65;;;1.20;99.90;;;;;;5030705;28;20039;-60
2021/04/07 02:30:47;;;;;;;23.98;9.32;;;1.20;99.90;;;;;;5034956;28;20034;-60
2021/04/07 02:33:13;;;;;;;21.67;8.95;;;1.20;99.90;;;;;;5030402;28;20104;-59
2021/04/07 02:35:39;;;;;;;24.40;8.75;;;1.20;99.90;;;;;;5029883;28;20021;-60
2021/04/07 02:38:07;;;;;;;25.23;9.10;;;1.20;99.90;;;;;;5030976;28;20097;-60
2021/04/07 02:40:33;;;;;;;16.67;8.15;;;1.20;99.90;;;;;;5030138;28;20018;-60
2021/04/07 02:42:58;;;;;;;24.58;9.90;;;1.20;99.90;;;;;;5027532;28;20398;-59
2021/04/07 02:45:24;;;;;;;19.02;9.13;;;1.30;99.90;;;;;;5034647;28;20036;-60
2021/04/07 02:47:50;;;;;;;15.38;8.27;;;1.30;99.90;;;;;;5030861;28;20108;-59
2021/04/07 02:50:15;;;;;;;18.05;8.75;;;1.30;99.90;;;;;;5029978;28;20116;-59
2021/04/07 02:52:41;;;;;;;18.70;9.27;;;1.30;99.90;;;;;;5026464;28;20107;-58
2021/04/07 02:55:06;;;;;;;22.92;8.57;;;1.30;99.90;;;;;;5029336;28;20057;-59
2021/04/07 02:57:32;;;;;;;17.55;8.48;;;1.30;99.90;;;;;;5028733;28;20432;-57
2021/04/07 02:59:58;;;;;;;20.00;9.57;;;1.40;99.90;;;;;;5035229;28;20092;-59
2021/04/07 03:02:23;;;;;;;16.88;9.23;;;1.40;99.90;;;;;;5029730;28;20033;-60
2021/04/07 03:04:49;;;;;;;16.20;8.95;;;1.40;99.90;;;;;;5029938;28;20044;-60
2021/04/07 03:07:14;;;;;;;24.58;8.52;;;1.40;99.90;;;;;;5029997;28;20030;-58
2021/04/07 03:09:40;;;;;;;26.15;9.63;;;1.40;99.90;;;;;;5029234;28;20033;-59
2021/04/07 03:12:06;;;;;;;16.48;9.60;;;1.40;99.90;;;;;;5029395;28;20036;-58
2021/04/07 03:14:32;;;;;;;19.05;10.05;;;1.40;99.90;;;;;;5031661;28;20083;-59
2021/04/07 03:16:57;;;;;;;18.35;11.27;;;1.30;99.90;;;;;;5036530;28;20030;-60
2021/04/07 03:19:23;;;;;;;23.90;11.77;;;1.30;99.90;;;;;;5029501;28;20110;-59
2021/04/07 03:21:48;;;;;;;25.63;11.85;;;1.30;99.90;;;;;;5027685;28;20033;-59
2021/04/07 03:24:14;;;;;;;24.20;11.45;;;1.30;99.90;;;;;;5029891;28;20056;-59
2021/04/07 03:26:39;;;;;;;29.90;13.05;;;1.30;99.90;;;;;;5026687;28;20105;-58
2021/04/07 03:29:05;;;;;;;25.83;13.07;;;1.30;99.90;;;;;;5035681;28;20072;-59
2021/04/07 03:31:30;;;;;;;30.98;15.07;;;1.30;99.90;;;;;;5035185;28;20025;-59
2021/04/07 03:33:56;;;;;;;34.78;16.67;;;1.30;99.90;;;;;;5031973;28;20026;-57
2021/04/07 03:36:21;;;;;;;46.10;18.02;;;1.30;99.90;;;;;;5027437;28;20029;-58
2021/04/07 03:38:47;;;;;;;34.90;16.80;;;1.30;99.90;;;;;;5032034;28;20032;-59
2021/04/07 03:41:12;;;;;;;39.72;18.42;;;1.30;99.90;;;;;;5033430;28;20576;-59
2021/04/07 03:43:38;;;;;;;41.75;17.45;;;1.30;99.90;;;;;;5036103;28;20591;-59
2021/04/07 03:46:04;;;;;;;38.10;17.80;;;1.40;99.90;;;;;;5033886;28;20434;-59
2021/04/07 03:48:30;;;;;;;32.42;16.00;;;1.40;99.90;;;;;;5034717;28;20029;-59
2021/04/07 03:50:58;;;;;;;32.85;16.85;;;1.40;99.90;;;;;;5031151;28;20699;-56
2021/04/07 03:53:24;;;;;;;34.22;16.20;;;1.40;99.90;;;;;;5030642;28;20057;-59
2021/04/07 03:55:52;;;;;;;42.50;16.85;;;1.40;99.90;;;;;;5032750;28;20022;-59
2021/04/07 03:58:18;;;;;;;33.72;16.63;;;1.40;99.90;;;;;;5034216;28;20116;-59
2021/04/07 04:00:44;;;;;;;34.97;15.13;;;1.40;99.90;;;;;;5037961;28;20025;-56
2021/04/07 04:03:10;;;;;;;28.13;15.52;;;1.40;99.90;;;;;;5031838;28;20037;-58
2021/04/07 04:05:36;;;;;;;34.53;16.40;;;1.40;99.90;;;;;;5030030;28;20521;-57
2021/04/07 04:08:02;;;;;;;31.67;17.80;;;1.40;99.90;;;;;;5030049;28;20049;-59
2021/04/07 04:10:28;;;;;;;31.80;16.30;;;1.50;99.90;;;;;;5032900;28;20068;-58
2021/04/07 04:12:54;;;;;;;36.50;16.38;;;1.50;99.90;;;;;;5031389;28;20029;-59
2021/04/07 04:15:20;;;;;;;31.80;16.50;;;1.50;99.90;;;;;;5033013;28;20056;-59
2021/04/07 04:17:46;;;;;;;38.40;16.55;;;1.50;99.90;;;;;;5038097;28;20020;-56
2021/04/07 04:20:14;;;;;;;33.20;15.15;;;1.40;99.90;;;;;;5032560;28;20616;-58
2021/04/07 04:22:40;;;;;;;34.67;14.63;;;1.50;99.90;;;;;;5022070;28;20083;-59
2021/04/07 04:25:07;;;;;;;28.75;12.85;;;1.50;99.90;;;;;;5004766;28;20083;-60
2021/04/07 04:27:33;;;;;;;25.98;12.90;;;1.50;99.90;;;;;;5026007;28;20121;-60
2021/04/07 04:29:58;;;;;;;32.70;15.52;;;1.50;99.90;;;;;;5031680;28;20477;-60
2021/04/07 04:32:24;;;;;;;45.10;16.90;;;1.50;99.90;;;;;;5032928;28;20030;-59
2021/04/07 04:34:49;;;;;;;33.25;16.23;;;1.50;99.90;;;;;;5030450;28;21276;-58
2021/04/07 04:37:15;;;;;;;33.92;17.20;;;1.50;99.90;;;;;;5025619;28;20534;-59
2021/04/07 04:39:41;;;;;;;38.25;17.55;;;1.50;99.90;;;;;;5033706;28;20025;-60
2021/04/07 04:42:06;;;;;;;42.08;17.10;;;1.50;99.90;;;;;;5031726;28;20087;-58
2021/04/07 04:44:32;;;;;;;40.00;18.90;;;1.50;99.90;;;;;;5032197;28;20029;-58
2021/04/07 04:46:58;;;;;;;41.38;18.05;;;1.50;99.90;;;;;;5033997;28;20221;-58
2021/04/07 04:49:23;;;;;;;35.65;18.15;;;1.50;99.90;;;;;;5034772;28;20108;-57
2021/04/07 04:51:49;;;;;;;44.97;19.63;;;1.50;99.90;;;;;;5025857;28;20032;-56
2021/04/07 04:54:15;;;;;;;41.67;17.38;;;1.50;99.90;;;;;;5032670;28;20026;-58
2021/04/07 04:56:41;;;;;;;34.47;15.95;;;1.50;99.90;;;;;;5028843;28;20053;-57
2021/04/07 04:59:07;;;;;;;36.83;16.63;;;1.50;99.90;;;;;;5030984;28;20061;-57
2021/04/07 05:01:33;;;;;;;38.58;16.55;;;1.50;99.90;;;;;;5028501;28;20041;-57
2021/04/07 05:04:01;;;;;;;34.67;16.40;;;1.50;99.90;;;;;;5030996;28;20483;-58
2021/04/07 05:06:27;;;;;;;32.20;15.20;;;1.60;99.90;;;;;;5031104;28;20029;-58
2021/04/07 05:08:53;;;;;;;32.33;16.05;;;1.60;99.90;;;;;;5036362;28;20039;-58
2021/04/07 05:11:18;;;;;;;37.72;15.13;;;1.60;99.90;;;;;;5029303;28;20021;-58
2021/04/07 05:13:44;;;;;;;34.53;14.38;;;1.60;99.90;;;;;;5030732;28;20052;-60
2021/04/07 05:16:09;;;;;;;33.10;13.48;;;1.60;99.90;;;;;;5031210;28;20403;-56
2021/04/07 05:18:35;;;;;;;34.45;14.90;;;1.60;99.90;;;;;;5031461;28;20450;-58
2021/04/07 05:21:00;;;;;;;31.23;12.88;;;1.60;99.90;;;;;;5029432;28;20454;-58
2021/04/07 05:23:26;;;;;;;25.70;12.65;;;1.70;99.90;;;;;;5023885;28;20030;-57
2021/04/07 05:25:52;;;;;;;32.92;12.60;;;1.70;99.90;;;;;;5025434;28;20049;-60
2021/04/07 05:28:18;;;;;;;26.90;12.05;;;1.70;99.90;;;;;;5030932;28;20116;-57
2021/04/07 05:31:00;;;;;;;26.60;13.10;;;1.70;99.90;;;;;;5030717;28;20108;-55
2021/04/07 05:33:31;;;;;;;26.33;12.13;;;1.70;99.90;;;;;;5028458;28;20037;-58
2021/04/07 05:36:00;;;;;;;26.48;12.93;;;1.70;99.90;;;;;;5029744;28;20093;-56
2021/04/07 05:38:26;;;;;;;18.02;12.00;;;1.70;99.90;;;;;;5022658;28;20392;-59
2021/04/07 05:40:53;;;;;;;22.30;11.65;;;1.80;99.90;;;;;;5020879;28;20566;-58
2021/04/07 05:43:19;;;;;;;22.95;12.95;;;1.80;99.90;;;;;;5022308;28;20025;-60
2021/04/07 05:45:45;;;;;;;27.30;11.77;;;1.80;99.90;;;;;;5031440;28;20483;-60
2021/04/07 05:48:11;;;;;;;17.88;10.90;;;1.80;99.90;;;;;;5032864;28;20048;-59
2021/04/07 05:50:38;;;;;;;21.88;12.10;;;1.90;99.90;;;;;;5024633;28;20648;-58
2021/04/07 05:53:04;;;;;;;24.27;11.73;;;1.90;99.90;;;;;;5022909;28;20067;-59
2021/04/07 05:55:30;;;;;;;27.48;11.75;;;1.90;99.90;;;;;;5019999;28;20033;-59
2021/04/07 05:58:01;;;;;;;29.58;14.32;;;1.90;99.90;;;;;;5026510;28;20095;-59
2021/04/07 06:00:27;;;;;;;24.05;14.20;;;2.00;99.90;;;;;;5031726;28;20026;-58
2021/04/07 06:02:57;;;;;;;31.83;13.82;;;1.90;99.90;;;;;;5033616;28;20040;-59
2021/04/07 06:05:23;;;;;;;34.67;15.63;;;1.90;99.90;;;;;;5031089;28;20786;-59
2021/04/07 06:07:50;;;;;;;31.58;16.55;;;1.90;99.90;;;;;;5027130;28;20061;-58
2021/04/07 06:10:16;;;;;;;31.75;15.73;;;1.80;99.90;;;;;;5021738;28;20029;-57
2021/04/07 06:12:42;;;;;;;28.52;14.73;;;1.80;99.90;;;;;;5025550;28;20055;-60
2021/04/07 06:15:09;;;;;;;31.92;13.27;;;1.80;99.90;;;;;;5035056;28;20383;-59
2021/04/07 06:17:36;;;;;;;25.83;12.80;;;1.80;99.90;;;;;;5030367;28;20490;-59
2021/04/07 06:20:04;;;;;;;28.25;12.57;;;1.90;99.90;;;;;;5036943;28;20048;-58
2021/04/07 06:22:30;;;;;;;33.00;12.02;;;1.90;99.90;;;;;;5026677;28;20068;-60
2021/04/07 06:24:55;;;;;;;24.85;12.10;;;1.90;99.90;;;;;;5028097;28;20452;-59
2021/04/07 06:27:21;;;;;;;32.90;13.70;;;1.90;99.90;;;;;;5029616;28;20021;-59
2021/04/07 06:29:46;;;;;;;30.15;13.18;;;1.90;99.90;;;;;;5031480;28;20104;-57
2021/04/07 06:32:12;;;;;;;27.55;13.88;;;1.80;99.90;;;;;;5028556;28;20491;-57
2021/04/07 06:34:37;;;;;;;36.45;13.88;;;1.80;99.90;;;;;;5029421;28;20022;-58
2021/04/07 06:37:03;;;;;;;28.20;13.18;;;1.70;99.90;;;;;;5024254;28;20086;-60
2021/04/07 06:39:28;;;;;;;38.38;14.10;;;1.70;99.90;;;;;;5030615;28;20034;-59
2021/04/07 06:41:54;;;;;;;41.45;13.07;;;1.70;99.90;;;;;;5027451;28;20033;-60
2021/04/07 06:44:20;;;;;;;28.40;12.75;;;1.60;99.90;;;;;;5032465;28;20033;-60
2021/04/07 06:46:47;;;;;;;35.50;14.05;;;1.60;99.90;;;;;;5037471;28;20410;-60
2021/04/07 06:49:13;;;;;;;34.53;14.20;;;1.60;99.90;;;;;;5029654;28;20033;-60
2021/04/07 06:51:41;;;;;;;27.67;12.77;;;1.60;99.90;;;;;;5028509;28;20037;-60
2021/04/07 06:54:07;;;;;;;31.48;14.27;;;1.60;99.90;;;;;;5012413;28;20091;-57
2021/04/07 06:56:33;;;;;;;36.03;12.65;;;1.60;99.90;;;;;;5024361;28;20864;-59
2021/04/07 06:58:59;;;;;;;35.55;12.75;;;1.70;99.90;;;;;;5032446;28;20033;-60
2021/04/07 07:01:24;;;;;;;24.38;10.80;;;1.70;99.90;;;;;;5032771;28;20106;-58
2021/04/07 07:03:51;;;;;;;23.63;11.65;;;1.70;99.90;;;;;;5027386;28;20052;-57
2021/04/07 07:06:18;;;;;;;23.75;10.55;;;1.60;99.90;;;;;;5022457;28;20424;-60
2021/04/07 07:08:43;;;;;;;26.23;10.13;;;1.60;99.90;;;;;;5025914;28;20038;-60
2021/04/07 07:11:16;;;;;;;25.50;11.07;;;1.60;99.90;;;;;;5023647;28;20025;-60
2021/04/07 07:13:42;;;;;;;36.70;11.27;;;1.70;99.90;;;;;;5029765;28;20606;-59
2021/04/07 07:16:08;;;;;;;24.02;10.48;;;1.80;99.90;;;;;;5034189;28;20079;-60
2021/04/07 07:18:34;;;;;;;25.98;11.38;;;1.80;99.90;;;;;;5030410;28;20116;-60
2021/04/07 07:21:01;;;;;;;25.70;9.93;;;1.80;99.90;;;;;;5028468;28;20033;-60
2021/04/07 07:23:27;;;;;;;19.67;8.15;;;1.90;99.90;;;;;;5023239;28;20103;-60
2021/04/07 07:26:03;;;;;;;19.95;8.60;;;1.80;99.90;;;;;;5020710;28;20522;-59
2021/04/07 07:28:39;;;;;;;18.15;9.00;;;1.90;99.90;;;;;;5030728;28;20065;-59
2021/04/07 07:31:19;;;;;;;19.17;7.68;;;1.90;99.90;;;;;;5026585;28;20029;-58
2021/04/07 07:33:46;;;;;;;21.90;8.27;;;1.90;99.90;;;;;;5031258;28;20098;-58
2021/04/07 07:36:11;;;;;;;26.98;8.68;;;1.90;99.90;;;;;;5026606;28;20399;-58
2021/04/07 07:38:48;;;;;;;21.25;9.38;;;1.80;99.90;;;;;;5023572;28;20029;-59
2021/04/07 07:41:17;;;;;;;27.52;12.05;;;1.80;99.90;;;;;;5020254;28;20056;-59
2021/04/07 07:43:42;;;;;;;27.58;11.55;;;1.80;99.90;;;;;;5024538;28;20036;-60
2021/04/07 07:46:18;;;;;;;28.65;11.25;;;1.80;99.90;;;;;;5037195;28;20383;-60
2021/04/07 07:48:44;;;;;;;25.38;12.57;;;1.90;99.90;;;;;;5030205;28;20025;-59
2021/04/07 07:51:15;;;;;;;27.17;11.95;;;1.90;99.90;;;;;;5028100;28;20029;-59
2021/04/07 07:53:45;;;;;;;21.90;11.32;;;1.70;99.90;;;;;;5035087;28;20022;-58
2021/04/07 07:56:13;;;;;;;30.42;11.43;;;1.70;99.90;;;;;;5031002;28;20621;-59
2021/04/07 07:58:43;;;;;;;25.65;10.73;;;1.60;99.90;;;;;;5030124;28;20097;-59
2021/04/07 08:01:10;;;;;;;25.50;11.30;;;1.60;99.90;;;;;;5031375;28;20044;-60
2021/04/07 08:03:37;;;;;;;24.55;8.32;;;1.60;99.90;;;;;;5034989;28;20064;-60
2021/04/07 08:06:02;;;;;;;18.75;7.90;;;1.70;99.90;;;;;;5029810;28;20026;-59
2021/04/07 08:08:28;;;;;;;23.70;8.35;;;1.70;99.90;;;;;;5031912;28;20075;-59
2021/04/07 08:10:55;;;;;;;21.38;9.13;;;1.80;99.90;;;;;;5032115;28;20029;-59
2021/04/07 08:13:21;;;;;;;18.25;8.27;;;1.80;99.90;;;;;;5029163;28;20064;-59
2021/04/07 08:15:48;;;;;;;16.92;9.55;;;1.80;99.90;;;;;;5035757;28;20036;-60
2021/04/07 08:18:15;;;;;;;22.90;9.80;;;1.90;99.90;;;;;;5033424;28;20506;-59
2021/04/07 08:20:41;;;;;;;20.23;8.90;;;2.00;99.90;;;;;;5031419;28;20562;-60
2021/04/07 08:23:10;;;;;;;22.77;9.10;;;2.00;99.90;;;;;;5024996;28;20102;-59
2021/04/07 08:25:36;;;;;;;19.65;9.05;;;2.00;99.90;;;;;;5035929;28;20119;-59
2021/04/07 08:28:04;;;;;;;14.38;8.55;;;2.10;99.90;;;;;;5029257;28;20557;-59
2021/04/07 08:30:30;;;;;;;13.68;8.38;;;2.10;99.90;;;;;;5029521;28;20021;-59
2021/04/07 08:32:57;;;;;;;15.52;8.48;;;2.10;99.90;;;;;;5035820;28;20159;-59
2021/04/07 08:35:24;;;;;;;20.00;9.73;;;2.20;99.90;;;;;;5022657;28;20376;-60
2021/04/07 08:38:04;;;;;;;17.65;9.27;;;2.20;99.90;;;;;;5036239;28;20033;-59
2021/04/07 08:40:43;;;;;;;18.02;10.73;;;2.20;99.90;;;;;;5037960;28;20091;-58
2021/04/07 08:43:11;;;;;;;26.33;12.35;;;2.20;99.90;;;;;;5037664;28;20030;-58
2021/04/07 08:45:45;;;;;;;25.45;13.75;;;2.20;99.90;;;;;;5033667;28;20057;-57
2021/04/07 08:48:18;;;;;;;22.65;11.45;;;2.30;99.90;;;;;;5033841;28;20125;-56
2021/04/07 08:51:06;;;;;;;27.25;12.38;;;2.40;99.90;;;;;;5032870;28;20072;-57
2021/04/07 08:53:33;;;;;;;29.00;9.38;;;2.40;99.90;;;;;;5027069;28;20027;-54
2021/04/07 08:56:06;;;;;;;17.83;11.15;;;2.20;99.90;;;;;;5034558;28;20037;-57
2021/04/07 08:58:32;;;;;;;16.15;10.35;;;2.20;99.90;;;;;;5036011;28;20482;-57
2021/04/07 09:00:58;;;;;;;27.95;11.85;;;2.00;99.90;;;;;;5033358;28;20030;-61
2021/04/07 09:03:30;;;;;;;24.17;12.80;;;2.00;99.90;;;;;;5030632;28;20029;-61
2021/04/07 09:05:56;;;;;;;25.10;13.10;;;2.00;99.90;;;;;;5026109;28;20040;-57
2021/04/07 09:08:23;;;;;;;25.33;13.00;;;2.00;99.90;;;;;;5027630;28;20033;-57
2021/04/07 09:10:54;;;;;;;20.15;11.18;;;2.00;99.90;;;;;;5022493;28;20026;-56
2021/04/07 09:13:24;;;;;;;26.38;12.80;;;2.00;99.90;;;;;;5023270;28;20572;-58
2021/04/07 09:15:55;;;;;;;27.15;13.90;;;2.10;99.90;;;;;;5033298;28;20082;-59
2021/04/07 09:18:33;;;;;;;28.05;14.52;;;2.10;99.90;;;;;;5019805;28;20518;-56
2021/04/07 09:21:01;;;;;;;29.10;12.80;;;2.10;99.90;;;;;;5022525;28;20491;-60
2021/04/07 09:23:31;;;;;;;22.40;10.25;;;2.10;99.90;;;;;;5026006;28;20067;-59
2021/04/07 09:26:10;;;;;;;23.85;12.10;;;2.10;99.90;;;;;;5025612;28;20096;-60
2021/04/07 09:28:38;;;;;;;15.90;9.05;;;2.20;99.90;;;;;;5020098;28;20040;-60
2021/04/07 09:31:07;;;;;;;15.00;7.63;;;2.10;99.90;;;;;;5029037;28;20033;-58
2021/04/07 09:33:37;;;;;;;19.58;7.57;;;2.10;99.90;;;;;;5032232;28;20035;-60
2021/04/07 09:36:03;;;;;;;17.75;7.85;;;2.10;99.90;;;;;;5023092;28;20100;-57
2021/04/07 09:38:30;;;;;;;16.15;8.13;;;2.00;99.90;;;;;;5021939;28;20021;-59
2021/04/07 09:41:05;;;;;;;21.77;7.78;;;2.10;99.90;;;;;;5027602;28;20033;-55
2021/04/07 09:43:31;;;;;;;12.98;6.60;;;2.20;99.90;;;;;;5028671;28;20135;-60
2021/04/07 09:45:57;;;;;;;14.50;7.07;;;2.30;99.90;;;;;;5024704;28;20138;-58
2021/04/07 09:48:34;;;;;;;17.65;7.38;;;2.30;99.90;;;;;;5027183;28;20029;-58
2021/04/07 09:51:00;;;;;;;19.17;6.80;;;2.30;99.90;;;;;;5029840;28;20369;-59
2021/04/07 09:53:28;;;;;;;17.40;7.18;;;2.40;99.90;;;;;;5027946;28;20025;-55
2021/04/07 09:56:01;;;;;;;12.07;6.55;;;2.40;99.90;;;;;;5030831;28;20041;-59
2021/04/07 09:58:27;;;;;;;8.30;5.78;;;2.40;99.90;;;;;;5030289;28;20514;-61
2021/04/07 10:00:54;;;;;;;17.05;6.15;;;2.30;99.90;;;;;;5032179;28;20041;-59
2021/04/07 10:03:20;;;;;;;14.13;6.43;;;2.30;99.90;;;;;;5028903;28;20533;-60
2021/04/07 10:05:46;;;;;;;14.27;7.25;;;2.20;99.90;;;;;;5036627;28;20040;-62
2021/04/07 10:08:17;;;;;;;12.55;6.60;;;2.10;99.90;;;;;;5031278;28;20095;-60
2021/04/07 10:10:43;;;;;;;14.00;6.80;;;2.00;99.90;;;;;;5033619;28;20564;-60
2021/04/07 10:13:09;;;;;;;14.85;8.35;;;2.00;99.90;;;;;;5031736;28;20033;-58
2021/04/07 10:15:37;;;;;;;18.38;9.43;;;2.00;99.90;;;;;;5031848;28;20025;-62
2021/04/07 10:18:11;;;;;;;25.20;10.00;;;1.90;99.90;;;;;;5028191;28;20030;-61
2021/04/07 10:20:37;;;;;;;15.45;9.18;;;1.90;99.90;;;;;;5030080;28;20088;-59
2021/04/07 10:23:11;;;;;;;21.30;11.45;;;1.90;99.90;;;;;;5032059;28;20482;-62
2021/04/07 10:25:37;;;;;;;14.85;9.70;;;1.90;99.90;;;;;;5026388;28;20104;-59
2021/04/07 10:28:03;;;;;;;15.18;9.20;;;2.00;99.90;;;;;;5029558;28;20121;-58
2021/04/07 10:30:35;;;;;;;20.75;10.60;;;2.00;99.90;;;;;;5031159;28;20826;-60
2021/04/07 10:33:03;;;;;;;24.13;12.27;;;2.00;99.90;;;;;;5026784;28;20068;-59
2021/04/07 10:35:31;;;;;;;18.33;10.75;;;2.00;99.90;;;;;;5026762;28;20028;-59
2021/04/07 10:38:02;;;;;;;23.13;11.85;;;2.10;99.90;;;;;;5030880;28;20075;-62
2021/04/07 10:40:33;;;;;;;19.05;10.90;;;2.20;99.90;;;;;;5037159;28;20025;-60
2021/04/07 10:43:10;;;;;;;16.33;10.60;;;2.30;99.90;;;;;;5029695;28;20118;-61
2021/04/07 10:45:36;;;;;;;13.00;8.70;;;2.30;99.90;;;;;;5029509;28;20030;-61
2021/04/07 10:48:02;;;;;;;11.18;9.10;;;2.40;99.90;;;;;;5026973;28;20564;-60
2021/04/07 10:50:38;;;;;;;12.93;8.80;;;2.50;99.90;;;;;;5022122;28;20053;-63
2021/04/07 10:53:04;;;;;;;12.98;9.32;;;2.50;99.90;;;;;;5029100;28;20057;-58
2021/04/07 10:55:31;;;;;;;12.95;8.38;;;2.70;99.90;;;;;;5036353;28;20068;-60
2021/04/07 10:57:58;;;;;;;13.07;8.55;;;2.70;99.90;;;;;;5030266;28;20041;-59
2021/04/07 11:00:40;;;;;;;12.52;7.78;;;2.70;99.90;;;;;;5035478;28;20037;-58
2021/04/07 11:03:07;;;;;;;16.02;9.20;;;2.70;99.90;;;;;;5029798;28;20045;-55
2021/04/07 11:05:40;;;;;;;18.02;9.40;;;2.70;99.90;;;;;;5023695;28;20079;-56
2021/04/07 11:08:07;;;;;;;16.13;9.27;;;2.70;99.90;;;;;;5029937;28;20021;-57
2021/04/07 11:10:48;;;;;;;27.33;11.85;;;2.70;99.90;;;;;;5028186;28;20487;-57
2021/04/07 11:13:15;;;;;;;27.83;10.40;;;2.70;99.90;;;;;;5030843;28;20033;-59
2021/04/07 11:15:41;;;;;;;19.42;10.02;;;2.70;99.90;;;;;;5029255;28;20057;-60
2021/04/07 11:18:07;;;;;;;23.45;12.23;;;2.80;99.90;;;;;;5025801;28;20841;-56
2021/04/07 11:20:34;;;;;;;30.40;12.30;;;2.70;99.90;;;;;;5027894;28;20529;-57
2021/04/07 11:23:00;;;;;;;32.40;13.35;;;2.80;99.90;;;;;;5024900;28;20034;-58
2021/04/07 11:25:27;;;;;;;29.10;12.35;;;2.80;99.90;;;;;;5025956;28;20044;-59
2021/04/07 11:27:56;;;;;;;24.80;12.77;;;2.90;99.90;;;;;;5028698;28;20038;-56
2021/04/07 11:30:23;;;;;;;26.67;13.50;;;2.90;99.90;;;;;;5032051;28;20101;-61
2021/04/07 11:32:53;;;;;;;31.42;13.52;;;3.00;99.90;;;;;;5031539;28;20393;-60
2021/04/07 11:38:05;;;;;;;27.15;10.32;;;3.10;99.90;;;;;;5027128;28;20032;-60
2021/04/07 11:45:29;;;;;;;30.90;12.90;;;3.40;99.90;;;;;;5031896;28;20032;-56
2021/04/07 11:47:55;;;;;;;26.90;11.50;;;3.50;99.90;;;;;;5034374;28;20034;-58
2021/04/07 11:50:20;;;;;;;25.30;12.48;;;3.50;99.90;;;;;;5032162;28;20044;-55
2021/04/07 11:52:46;;;;;;;30.10;12.88;;;3.60;99.90;;;;;;5033357;28;20067;-54
2021/04/07 11:55:12;;;;;;;36.22;13.02;;;3.70;99.90;;;;;;5040483;28;20393;-57
2021/04/07 11:57:38;;;;;;;29.67;13.00;;;3.80;99.90;;;;;;5034805;28;20017;-59
2021/04/07 12:00:09;;;;;;;40.88;13.88;;;3.80;99.90;;;;;;5037642;28;20147;-60
2021/04/07 12:02:36;;;;;;;34.08;12.27;;;3.80;99.90;;;;;;5041250;28;20102;-57
2021/04/07 12:05:02;;;;;;;28.02;11.93;;;3.70;99.90;;;;;;5039507;28;20499;-60
2021/04/07 12:07:27;;;;;;;31.70;12.77;;;3.70;99.90;;;;;;5032039;28;20017;-60
2021/04/07 12:09:53;;;;;;;43.22;13.00;;;3.80;99.90;;;;;;5041082;28;20471;-57
2021/04/07 12:12:19;;;;;;;42.15;14.75;;;3.80;99.90;;;;;;5038657;28;20033;-58
2021/04/07 12:14:44;;;;;;;35.80;15.70;;;4.00;99.90;;;;;;5037761;28;20025;-58
2021/04/07 12:17:10;;;;;;;34.90;13.02;;;4.20;99.90;;;;;;5037107;28;20040;-59
2021/04/07 12:19:35;;;;;;;31.70;12.43;;;4.60;99.90;;;;;;5029673;28;20104;-58
2021/04/07 12:22:01;;;;;;;24.77;10.48;;;4.70;99.90;;;;;;5034217;28;20546;-59
2021/04/07 12:24:29;;;;;;;26.45;9.68;;;4.80;99.90;;;;;;5029492;28;20026;-58
2021/04/07 12:26:55;;;;;;;26.27;11.05;;;4.80;99.90;;;;;;5033400;28;20083;-60
2021/04/07 12:29:22;;;;;;;27.33;11.93;;;4.60;99.90;;;;;;5031573;28;20064;-59
2021/04/07 12:31:48;;;;;;;44.03;12.88;;;4.60;99.90;;;;;;5032900;28;20079;-60
2021/04/07 12:34:13;;;;;;;45.30;11.40;;;4.50;99.90;;;;;;5018987;28;20024;-60
2021/04/07 12:36:39;;;;;;;39.80;11.98;;;4.40;99.90;;;;;;5029870;28;20028;-60
2021/04/07 12:39:05;;;;;;;40.63;11.18;;;4.40;99.90;;;;;;5029483;28;20104;-59
2021/04/07 12:44:04;;;;;;;38.22;12.38;;;4.70;99.90;;;;;;5032275;28;20076;-58
2021/04/07 12:46:30;;;;;;;30.42;12.20;;;4.70;99.90;;;;;;5036855;28;20064;-57
2021/04/07 12:48:56;;;;;;;39.15;11.88;;;4.60;99.90;;;;;;5037127;28;20022;-58
2021/04/07 12:51:23;;;;;;;40.70;12.95;;;4.50;99.90;;;;;;5034361;28;20025;-60